Terminal Aerodrome Forecast
Issued by NWS Shreveport, LA

Home | Current Version | Previous Version | Text Only | Print | Product List | Glossary On
Versions: 1 2 3 4 5 6 7 8 9 10 11 12 13 14 15 16 17
000
FTUS44 KSHV 251748
TAFTYR
TAF
KTYR 251748Z 2518/2618 16007KT P6SM VCSH BKN025
     FM251900 17007KT P6SM VCSH BKN035
     FM260000 VRB04KT P6SM VCSH BKN045 BKN150 BKN250
     FM260400 34004KT P6SM BKN045 BKN120 OVC250
     FM260700 34004KT P6SM BKN025
     FM260900 35005KT P6SM VCSH OVC012
     FM261500 02009KT P6SM VCSH OVC017=

USA.gov is the U.S. government's official web portal to all federal, state and local government web resources and services.